Main page
METAR-TAF:

METAR-TAF

Airports :

Kythira, Greece

Kithira Island National Airport

latitude: 36-17-21N, longitude: 023-01-24E, elevation: 321 m

Current weather observation

The report was made 14 minutes ago, at 09:50 UTC
Wind 10 kt from the Northeast
Temperature 21°C
Humidity 46%
Pressure 1021 hPa
Visibility 10 km or more
no clouds below 1500 m and no cumulonimbus

METAR: LGKC 190950Z 04010KT CAVOK 21/09 Q1021

Time: 13:04 (10:04 UTC)

Forecast

The report was made 2 hours and 4 minutes ago, at 08:00 UTC
Forecast valid from 19 at 09 UTC to 19 at 18 UTC
Wind 12 kt from the Northeast with gusts up to 22 kt
Visibility: 9000 m
Few clouds at a height of 1800 ft

TAF: LGKC 190800Z 1909/1918 04012G22KT 9000 FEW018

Weather observations and forecasts of more than 4000 airports (METAR and TAF reports).

The available stations are represented by yellow and red dots on the map.

Hover mouse over dot to see the name of the station.

Then click to see weather observations and forecasts.

To change the map : click on the green buttons with a black cross to zoom in, on the green button with a dash to zoom out, or on the green arrows for adjacent maps.


METAR-TAF: